Startpagina
METAR-TAF:

METAR-TAF

Vliegvelden :

Cairns, Australië

Cairns Airport

breedte: 16-53S, lengte: 145-45E, hoogte: 3 m

Actueel weer

Dit bericht is 33 minuten geleden gemaakt, om 10:30 UTC
Wind 5 kt uit het westen
Temperatuur 28°C
Vochtigheid 79%
Druk 1008 hPa
Zicht 10 km of meer
geen wolken onder 1500 m en geen cumulonimbus

METAR: YBCS 261030Z 28005KT CAVOK 28/24 Q1008 NOSIG

Tijdstip: 21:03 (11:03 UTC)

Verwachting

Dit bericht is 5 uur en het 44 minuten geleden gemaakt, om 05:19 UTC
Verwachting geldig van 26 om 06 UTC tot 27 om 06 UTC
Wind 10 kt uit het noordnoordoosten
Zicht 10 km of meer
Verspreide wolken op 3000 ft
Van 26 om 0900 UTC
Wind 5 kt uit het westzuidwesten
Zicht 10 km of meer
Weinig wolken op 2500 ft
Van 27 om 0000 UTC
Wind 15 kt uit het westen
Zicht 10 km of meer
Weinig wolken op 4500 ft

TAF: YBCS 260519Z 2606/2706 03010KT 9999 SCT030 FM260900 24005KT 9999 FEW025 FM270000 26015KT 9999 FEW045

Waarnemingen en weersverwachtingen van meer dan 4000 vliegvelden (METAR en TAF).

De beschikbare stations zijn de gele en rode punten op de kaart.

Ga met uw muis naar het station om de naam te zien.

Klik dan om waarnemingen en weersverwachtingen te zien.

kaart wijzigen: klik op de groene knoppen met een zwart kruis om in te zoomen, op de groene knop met een streepje om uit te zoomen of op de groene pijlen voor aangrenzende kaarten.


METAR-TAF: